sensor_id;sensor_type;location;lat;lon;timestamp;P1;durP1;ratioP1;P2;durP2;ratioP2
52414;SDS011;38340;52.964;6.086;2024-03-25T00:00:10;17.83;;;4.95;;
52414;SDS011;38340;52.964;6.086;2024-03-25T00:02:37;19.58;;;6.20;;
52414;SDS011;38340;52.964;6.086;2024-03-25T00:05:03;17.48;;;5.00;;
52414;SDS011;38340;52.964;6.086;2024-03-25T00:07:30;25.38;;;6.53;;
52414;SDS011;38340;52.964;6.086;2024-03-25T00:09:56;22.13;;;5.28;;
52414;SDS011;38340;52.964;6.086;2024-03-25T00:12:24;17.63;;;5.22;;
52414;SDS011;38340;52.964;6.086;2024-03-25T00:14:50;19.02;;;5.75;;
52414;SDS011;38340;52.964;6.086;2024-03-25T00:17:16;19.23;;;5.68;;
52414;SDS011;38340;52.964;6.086;2024-03-25T00:19:41;20.33;;;5.20;;
52414;SDS011;38340;52.964;6.086;2024-03-25T00:22:07;19.77;;;5.88;;
52414;SDS011;38340;52.964;6.086;2024-03-25T00:24:33;29.15;;;6.40;;
52414;SDS011;38340;52.964;6.086;2024-03-25T00:26:58;30.65;;;6.68;;
52414;SDS011;38340;52.964;6.086;2024-03-25T00:29:24;24.27;;;6.60;;
52414;SDS011;38340;52.964;6.086;2024-03-25T00:31:50;25.02;;;7.60;;
52414;SDS011;38340;52.964;6.086;2024-03-25T00:34:15;16.98;;;5.28;;
52414;SDS011;38340;52.964;6.086;2024-03-25T00:36:42;24.30;;;6.28;;
52414;SDS011;38340;52.964;6.086;2024-03-25T00:39:08;13.20;;;5.10;;
52414;SDS011;38340;52.964;6.086;2024-03-25T00:41:33;18.48;;;5.28;;
52414;SDS011;38340;52.964;6.086;2024-03-25T00:43:59;24.83;;;5.32;;
52414;SDS011;38340;52.964;6.086;2024-03-25T00:46:25;18.38;;;5.32;;
52414;SDS011;38340;52.964;6.086;2024-03-25T00:48:51;13.02;;;4.63;;
52414;SDS011;38340;52.964;6.086;2024-03-25T00:51:16;17.00;;;5.68;;
52414;SDS011;38340;52.964;6.086;2024-03-25T00:53:42;9.93;;;4.38;;
52414;SDS011;38340;52.964;6.086;2024-03-25T00:56:08;28.23;;;5.57;;
52414;SDS011;38340;52.964;6.086;2024-03-25T00:58:34;16.98;;;5.22;;
52414;SDS011;38340;52.964;6.086;2024-03-25T01:00:59;14.82;;;4.68;;
52414;SDS011;38340;52.964;6.086;2024-03-25T01:03:25;14.75;;;4.20;;
52414;SDS011;38340;52.964;6.086;2024-03-25T01:05:51;21.65;;;4.75;;
52414;SDS011;38340;52.964;6.086;2024-03-25T01:08:17;20.45;;;5.35;;
52414;SDS011;38340;52.964;6.086;2024-03-25T01:10:43;12.98;;;4.57;;
52414;SDS011;38340;52.964;6.086;2024-03-25T01:13:08;22.20;;;4.60;;
52414;SDS011;38340;52.964;6.086;2024-03-25T01:15:34;20.38;;;6.32;;
52414;SDS011;38340;52.964;6.086;2024-03-25T01:17:59;16.45;;;4.35;;
52414;SDS011;38340;52.964;6.086;2024-03-25T01:20:25;19.48;;;4.80;;
52414;SDS011;38340;52.964;6.086;2024-03-25T01:22:51;12.25;;;5.18;;
52414;SDS011;38340;52.964;6.086;2024-03-25T01:25:16;18.35;;;4.93;;
52414;SDS011;38340;52.964;6.086;2024-03-25T01:27:42;20.23;;;4.80;;
52414;SDS011;38340;52.964;6.086;2024-03-25T01:30:07;16.10;;;5.35;;
52414;SDS011;38340;52.964;6.086;2024-03-25T01:32:33;16.08;;;4.78;;
52414;SDS011;38340;52.964;6.086;2024-03-25T01:34:59;20.17;;;4.80;;
52414;SDS011;38340;52.964;6.086;2024-03-25T01:37:25;24.80;;;5.45;;
52414;SDS011;38340;52.964;6.086;2024-03-25T01:39:50;16.48;;;4.40;;
52414;SDS011;38340;52.964;6.086;2024-03-25T01:42:16;15.43;;;4.85;;
52414;SDS011;38340;52.964;6.086;2024-03-25T01:44:42;19.08;;;4.90;;
52414;SDS011;38340;52.964;6.086;2024-03-25T01:47:07;15.55;;;4.65;;
52414;SDS011;38340;52.964;6.086;2024-03-25T01:49:33;15.82;;;5.68;;
52414;SDS011;38340;52.964;6.086;2024-03-25T01:51:59;14.25;;;5.15;;
52414;SDS011;38340;52.964;6.086;2024-03-25T01:54:24;18.67;;;5.13;;
52414;SDS011;38340;52.964;6.086;2024-03-25T01:56:52;18.05;;;4.93;;
52414;SDS011;38340;52.964;6.086;2024-03-25T01:59:20;20.30;;;5.65;;
52414;SDS011;38340;52.964;6.086;2024-03-25T02:01:45;17.17;;;4.85;;
52414;SDS011;38340;52.964;6.086;2024-03-25T02:04:12;17.85;;;4.97;;
52414;SDS011;38340;52.964;6.086;2024-03-25T02:06:38;11.57;;;4.40;;
52414;SDS011;38340;52.964;6.086;2024-03-25T02:09:06;18.42;;;4.57;;
52414;SDS011;38340;52.964;6.086;2024-03-25T02:11:32;12.52;;;5.13;;
52414;SDS011;38340;52.964;6.086;2024-03-25T02:13:58;14.00;;;5.53;;
52414;SDS011;38340;52.964;6.086;2024-03-25T02:16:24;22.17;;;5.10;;
52414;SDS011;38340;52.964;6.086;2024-03-25T02:18:50;25.25;;;5.43;;
52414;SDS011;38340;52.964;6.086;2024-03-25T02:21:16;14.00;;;4.32;;
52414;SDS011;38340;52.964;6.086;2024-03-25T02:23:42;15.35;;;4.47;;
52414;SDS011;38340;52.964;6.086;2024-03-25T02:26:09;10.35;;;4.22;;
52414;SDS011;38340;52.964;6.086;2024-03-25T02:28:35;19.67;;;5.50;;
52414;SDS011;38340;52.964;6.086;2024-03-25T02:31:01;17.17;;;4.95;;
52414;SDS011;38340;52.964;6.086;2024-03-25T02:33:26;22.92;;;4.65;;
52414;SDS011;38340;52.964;6.086;2024-03-25T02:35:52;20.70;;;4.38;;
52414;SDS011;38340;52.964;6.086;2024-03-25T02:38:18;19.02;;;4.38;;
52414;SDS011;38340;52.964;6.086;2024-03-25T02:40:45;18.25;;;4.53;;
52414;SDS011;38340;52.964;6.086;2024-03-25T02:43:10;16.90;;;4.80;;
52414;SDS011;38340;52.964;6.086;2024-03-25T02:45:36;14.27;;;4.50;;
52414;SDS011;38340;52.964;6.086;2024-03-25T02:48:02;15.40;;;4.65;;
52414;SDS011;38340;52.964;6.086;2024-03-25T02:50:28;12.00;;;3.90;;
52414;SDS011;38340;52.964;6.086;2024-03-25T02:52:54;14.90;;;4.43;;
52414;SDS011;38340;52.964;6.086;2024-03-25T02:55:19;18.88;;;4.00;;
52414;SDS011;38340;52.964;6.086;2024-03-25T02:57:45;14.65;;;4.15;;
52414;SDS011;38340;52.964;6.086;2024-03-25T03:00:11;10.18;;;3.85;;
52414;SDS011;38340;52.964;6.086;2024-03-25T03:02:38;14.65;;;4.90;;
52414;SDS011;38340;52.964;6.086;2024-03-25T03:05:04;15.85;;;4.70;;
52414;SDS011;38340;52.964;6.086;2024-03-25T03:07:30;15.45;;;5.00;;
52414;SDS011;38340;52.964;6.086;2024-03-25T03:09:56;17.00;;;4.75;;
52414;SDS011;38340;52.964;6.086;2024-03-25T03:12:21;12.75;;;4.07;;
52414;SDS011;38340;52.964;6.086;2024-03-25T03:14:47;12.73;;;4.10;;
52414;SDS011;38340;52.964;6.086;2024-03-25T03:17:13;10.98;;;4.68;;
52414;SDS011;38340;52.964;6.086;2024-03-25T03:19:39;16.95;;;4.65;;
52414;SDS011;38340;52.964;6.086;2024-03-25T03:22:04;17.38;;;5.47;;
52414;SDS011;38340;52.964;6.086;2024-03-25T03:24:30;17.08;;;5.03;;
52414;SDS011;38340;52.964;6.086;2024-03-25T03:26:56;19.15;;;4.68;;
52414;SDS011;38340;52.964;6.086;2024-03-25T03:29:21;14.93;;;4.43;;
52414;SDS011;38340;52.964;6.086;2024-03-25T03:31:47;17.50;;;4.82;;
52414;SDS011;38340;52.964;6.086;2024-03-25T03:34:13;14.70;;;4.63;;
52414;SDS011;38340;52.964;6.086;2024-03-25T03:36:38;14.68;;;4.10;;
52414;SDS011;38340;52.964;6.086;2024-03-25T03:39:05;19.55;;;4.95;;
52414;SDS011;38340;52.964;6.086;2024-03-25T03:41:33;14.32;;;4.68;;
52414;SDS011;38340;52.964;6.086;2024-03-25T03:43:59;19.17;;;4.85;;
52414;SDS011;38340;52.964;6.086;2024-03-25T03:46:25;12.80;;;4.47;;
52414;SDS011;38340;52.964;6.086;2024-03-25T03:48:50;17.63;;;5.25;;
52414;SDS011;38340;52.964;6.086;2024-03-25T03:51:16;18.65;;;4.47;;
52414;SDS011;38340;52.964;6.086;2024-03-25T03:53:42;16.77;;;4.88;;
52414;SDS011;38340;52.964;6.086;2024-03-25T03:56:07;16.08;;;5.80;;
52414;SDS011;38340;52.964;6.086;2024-03-25T03:58:34;16.92;;;4.78;;
52414;SDS011;38340;52.964;6.086;2024-03-25T04:01:00;25.42;;;5.82;;
52414;SDS011;38340;52.964;6.086;2024-03-25T04:03:26;22.95;;;5.00;;
52414;SDS011;38340;52.964;6.086;2024-03-25T04:05:51;17.55;;;5.15;;
52414;SDS011;38340;52.964;6.086;2024-03-25T04:08:17;20.55;;;4.93;;
52414;SDS011;38340;52.964;6.086;2024-03-25T04:10:43;13.98;;;4.10;;
52414;SDS011;38340;52.964;6.086;2024-03-25T04:13:10;19.05;;;4.65;;
52414;SDS011;38340;52.964;6.086;2024-03-25T04:15:39;19.55;;;4.53;;
52414;SDS011;38340;52.964;6.086;2024-03-25T04:18:07;19.75;;;4.47;;
52414;SDS011;38340;52.964;6.086;2024-03-25T04:20:37;17.02;;;4.05;;
52414;SDS011;38340;52.964;6.086;2024-03-25T04:23:06;14.93;;;4.13;;
52414;SDS011;38340;52.964;6.086;2024-03-25T04:25:34;21.60;;;4.60;;
52414;SDS011;38340;52.964;6.086;2024-03-25T04:28:04;13.43;;;4.55;;
52414;SDS011;38340;52.964;6.086;2024-03-25T04:30:31;26.98;;;5.28;;
52414;SDS011;38340;52.964;6.086;2024-03-25T04:32:57;15.30;;;4.35;;
52414;SDS011;38340;52.964;6.086;2024-03-25T04:35:23;15.70;;;5.05;;
52414;SDS011;38340;52.964;6.086;2024-03-25T04:37:48;18.42;;;4.35;;
52414;SDS011;38340;52.964;6.086;2024-03-25T04:40:15;16.80;;;5.03;;
52414;SDS011;38340;52.964;6.086;2024-03-25T04:42:43;15.75;;;4.40;;
52414;SDS011;38340;52.964;6.086;2024-03-25T04:45:10;12.38;;;4.22;;
52414;SDS011;38340;52.964;6.086;2024-03-25T04:47:37;18.48;;;5.25;;
52414;SDS011;38340;52.964;6.086;2024-03-25T04:50:02;19.38;;;4.43;;
52414;SDS011;38340;52.964;6.086;2024-03-25T04:52:28;14.73;;;4.10;;
52414;SDS011;38340;52.964;6.086;2024-03-25T04:54:54;16.77;;;3.92;;
52414;SDS011;38340;52.964;6.086;2024-03-25T04:57:20;13.73;;;3.97;;
52414;SDS011;38340;52.964;6.086;2024-03-25T04:59:45;16.80;;;4.88;;
52414;SDS011;38340;52.964;6.086;2024-03-25T05:02:11;13.45;;;4.32;;
52414;SDS011;38340;52.964;6.086;2024-03-25T05:04:39;17.58;;;4.10;;
52414;SDS011;38340;52.964;6.086;2024-03-25T05:07:04;15.02;;;4.05;;
52414;SDS011;38340;52.964;6.086;2024-03-25T05:09:30;16.23;;;4.40;;
52414;SDS011;38340;52.964;6.086;2024-03-25T05:11:56;22.27;;;4.60;;
52414;SDS011;38340;52.964;6.086;2024-03-25T05:14:22;17.88;;;4.25;;
52414;SDS011;38340;52.964;6.086;2024-03-25T05:16:47;21.35;;;4.78;;
52414;SDS011;38340;52.964;6.086;2024-03-25T05:19:14;13.82;;;5.03;;
52414;SDS011;38340;52.964;6.086;2024-03-25T05:21:40;11.35;;;3.83;;
52414;SDS011;38340;52.964;6.086;2024-03-25T05:24:06;14.25;;;5.05;;
52414;SDS011;38340;52.964;6.086;2024-03-25T05:26:31;12.52;;;3.83;;
52414;SDS011;38340;52.964;6.086;2024-03-25T05:28:57;13.85;;;4.47;;
52414;SDS011;38340;52.964;6.086;2024-03-25T05:31:23;12.55;;;4.18;;
52414;SDS011;38340;52.964;6.086;2024-03-25T05:33:49;14.63;;;4.55;;
52414;SDS011;38340;52.964;6.086;2024-03-25T05:36:15;11.02;;;4.03;;
52414;SDS011;38340;52.964;6.086;2024-03-25T05:38:41;15.02;;;4.15;;
52414;SDS011;38340;52.964;6.086;2024-03-25T05:41:07;15.20;;;4.30;;
52414;SDS011;38340;52.964;6.086;2024-03-25T05:43:34;14.45;;;4.57;;
52414;SDS011;38340;52.964;6.086;2024-03-25T05:46:00;12.35;;;4.10;;
52414;SDS011;38340;52.964;6.086;2024-03-25T05:48:25;13.20;;;4.68;;
52414;SDS011;38340;52.964;6.086;2024-03-25T05:51:01;20.50;;;4.95;;
52414;SDS011;38340;52.964;6.086;2024-03-25T05:53:27;16.63;;;5.20;;
52414;SDS011;38340;52.964;6.086;2024-03-25T05:55:53;14.52;;;4.90;;
52414;SDS011;38340;52.964;6.086;2024-03-25T05:58:19;12.52;;;4.60;;
52414;SDS011;38340;52.964;6.086;2024-03-25T06:00:49;17.75;;;5.40;;
52414;SDS011;38340;52.964;6.086;2024-03-25T06:03:15;13.50;;;5.25;;
52414;SDS011;38340;52.964;6.086;2024-03-25T06:05:42;13.20;;;4.97;;
52414;SDS011;38340;52.964;6.086;2024-03-25T06:08:08;10.77;;;4.40;;
52414;SDS011;38340;52.964;6.086;2024-03-25T06:10:43;14.15;;;5.25;;
52414;SDS011;38340;52.964;6.086;2024-03-25T06:13:08;19.38;;;5.38;;
52414;SDS011;38340;52.964;6.086;2024-03-25T06:15:34;13.57;;;4.53;;
52414;SDS011;38340;52.964;6.086;2024-03-25T06:18:00;15.20;;;4.80;;
52414;SDS011;38340;52.964;6.086;2024-03-25T06:20:26;13.82;;;5.10;;
52414;SDS011;38340;52.964;6.086;2024-03-25T06:22:51;15.50;;;4.63;;
52414;SDS011;38340;52.964;6.086;2024-03-25T06:25:17;19.60;;;4.78;;
52414;SDS011;38340;52.964;6.086;2024-03-25T06:27:43;18.05;;;6.32;;
52414;SDS011;38340;52.964;6.086;2024-03-25T06:30:09;12.98;;;5.18;;
52414;SDS011;38340;52.964;6.086;2024-03-25T06:32:54;20.55;;;5.25;;
52414;SDS011;38340;52.964;6.086;2024-03-25T06:35:38;13.30;;;4.85;;
52414;SDS011;38340;52.964;6.086;2024-03-25T06:38:04;17.23;;;5.88;;
52414;SDS011;38340;52.964;6.086;2024-03-25T06:40:30;11.80;;;4.93;;
52414;SDS011;38340;52.964;6.086;2024-03-25T06:42:56;11.50;;;4.65;;
52414;SDS011;38340;52.964;6.086;2024-03-25T06:45:22;22.65;;;5.05;;
52414;SDS011;38340;52.964;6.086;2024-03-25T06:47:48;19.10;;;5.47;;
52414;SDS011;38340;52.964;6.086;2024-03-25T06:50:14;14.10;;;4.82;;
52414;SDS011;38340;52.964;6.086;2024-03-25T06:52:40;15.18;;;4.80;;
52414;SDS011;38340;52.964;6.086;2024-03-25T06:55:07;33.70;;;6.70;;
52414;SDS011;38340;52.964;6.086;2024-03-25T06:57:33;50.05;;;7.40;;
52414;SDS011;38340;52.964;6.086;2024-03-25T06:59:59;13.98;;;4.10;;
52414;SDS011;38340;52.964;6.086;2024-03-25T07:02:24;12.30;;;4.30;;
52414;SDS011;38340;52.964;6.086;2024-03-25T07:04:50;10.45;;;4.70;;
52414;SDS011;38340;52.964;6.086;2024-03-25T07:07:16;13.52;;;5.28;;
52414;SDS011;38340;52.964;6.086;2024-03-25T07:09:41;13.90;;;3.97;;
52414;SDS011;38340;52.964;6.086;2024-03-25T07:12:07;13.43;;;4.45;;
52414;SDS011;38340;52.964;6.086;2024-03-25T07:14:33;9.38;;;4.15;;
52414;SDS011;38340;52.964;6.086;2024-03-25T07:16:59;14.20;;;3.88;;
52414;SDS011;38340;52.964;6.086;2024-03-25T07:19:25;17.35;;;5.28;;
52414;SDS011;38340;52.964;6.086;2024-03-25T07:21:50;10.75;;;3.35;;
52414;SDS011;38340;52.964;6.086;2024-03-25T07:24:16;12.38;;;3.75;;
52414;SDS011;38340;52.964;6.086;2024-03-25T07:26:42;10.40;;;3.72;;
52414;SDS011;38340;52.964;6.086;2024-03-25T07:29:07;9.52;;;3.58;;
52414;SDS011;38340;52.964;6.086;2024-03-25T07:31:33;12.68;;;4.47;;
52414;SDS011;38340;52.964;6.086;2024-03-25T07:33:59;10.15;;;3.33;;
52414;SDS011;38340;52.964;6.086;2024-03-25T07:36:24;13.15;;;4.72;;
52414;SDS011;38340;52.964;6.086;2024-03-25T07:38:50;9.80;;;3.60;;
52414;SDS011;38340;52.964;6.086;2024-03-25T07:41:16;13.85;;;4.20;;
52414;SDS011;38340;52.964;6.086;2024-03-25T07:43:41;12.55;;;4.22;;
52414;SDS011;38340;52.964;6.086;2024-03-25T07:46:07;13.80;;;3.60;;
52414;SDS011;38340;52.964;6.086;2024-03-25T07:48:33;14.50;;;3.60;;
52414;SDS011;38340;52.964;6.086;2024-03-25T07:51:00;13.57;;;3.45;;
52414;SDS011;38340;52.964;6.086;2024-03-25T07:53:26;9.90;;;3.85;;
52414;SDS011;38340;52.964;6.086;2024-03-25T07:55:52;14.05;;;3.90;;
52414;SDS011;38340;52.964;6.086;2024-03-25T07:58:17;15.88;;;4.72;;
52414;SDS011;38340;52.964;6.086;2024-03-25T08:00:43;9.93;;;3.80;;
52414;SDS011;38340;52.964;6.086;2024-03-25T08:03:09;13.50;;;4.20;;
52414;SDS011;38340;52.964;6.086;2024-03-25T08:05:35;10.43;;;3.72;;
52414;SDS011;38340;52.964;6.086;2024-03-25T08:08:01;15.70;;;4.55;;
52414;SDS011;38340;52.964;6.086;2024-03-25T08:10:26;18.02;;;4.53;;
52414;SDS011;38340;52.964;6.086;2024-03-25T08:12:53;16.70;;;5.05;;
52414;SDS011;38340;52.964;6.086;2024-03-25T08:15:19;11.70;;;4.55;;
52414;SDS011;38340;52.964;6.086;2024-03-25T08:17:44;13.93;;;4.10;;
52414;SDS011;38340;52.964;6.086;2024-03-25T08:20:10;15.38;;;4.18;;
52414;SDS011;38340;52.964;6.086;2024-03-25T08:22:37;14.70;;;4.22;;
52414;SDS011;38340;52.964;6.086;2024-03-25T08:25:03;12.90;;;5.00;;
52414;SDS011;38340;52.964;6.086;2024-03-25T08:27:29;12.60;;;3.90;;
52414;SDS011;38340;52.964;6.086;2024-03-25T08:29:55;18.80;;;5.25;;
52414;SDS011;38340;52.964;6.086;2024-03-25T08:32:21;13.88;;;4.05;;
52414;SDS011;38340;52.964;6.086;2024-03-25T08:34:46;17.88;;;5.07;;
52414;SDS011;38340;52.964;6.086;2024-03-25T08:37:12;11.68;;;4.68;;
52414;SDS011;38340;52.964;6.086;2024-03-25T08:39:38;14.90;;;4.18;;
52414;SDS011;38340;52.964;6.086;2024-03-25T08:42:03;10.77;;;4.53;;
52414;SDS011;38340;52.964;6.086;2024-03-25T08:44:29;16.02;;;4.03;;
52414;SDS011;38340;52.964;6.086;2024-03-25T08:46:55;13.27;;;4.28;;
52414;SDS011;38340;52.964;6.086;2024-03-25T08:49:20;14.57;;;3.88;;
52414;SDS011;38340;52.964;6.086;2024-03-25T08:51:46;9.20;;;4.75;;
52414;SDS011;38340;52.964;6.086;2024-03-25T08:54:12;16.25;;;4.25;;
52414;SDS011;38340;52.964;6.086;2024-03-25T08:56:38;14.32;;;4.53;;
52414;SDS011;38340;52.964;6.086;2024-03-25T08:59:03;13.43;;;4.88;;
52414;SDS011;38340;52.964;6.086;2024-03-25T09:01:29;19.15;;;4.72;;
52414;SDS011;38340;52.964;6.086;2024-03-25T09:03:55;12.30;;;4.10;;
52414;SDS011;38340;52.964;6.086;2024-03-25T09:06:21;12.30;;;4.25;;
52414;SDS011;38340;52.964;6.086;2024-03-25T09:08:47;12.00;;;3.90;;
52414;SDS011;38340;52.964;6.086;2024-03-25T09:11:31;9.45;;;3.97;;
52414;SDS011;38340;52.964;6.086;2024-03-25T09:13:57;11.65;;;3.42;;
52414;SDS011;38340;52.964;6.086;2024-03-25T09:16:23;12.25;;;3.85;;
52414;SDS011;38340;52.964;6.086;2024-03-25T09:18:48;10.52;;;3.90;;
52414;SDS011;38340;52.964;6.086;2024-03-25T09:21:14;18.15;;;3.67;;
52414;SDS011;38340;52.964;6.086;2024-03-25T09:23:40;14.32;;;3.90;;
52414;SDS011;38340;52.964;6.086;2024-03-25T09:26:05;15.30;;;4.13;;
52414;SDS011;38340;52.964;6.086;2024-03-25T09:28:31;12.68;;;4.35;;
52414;SDS011;38340;52.964;6.086;2024-03-25T09:30:57;8.65;;;3.42;;
52414;SDS011;38340;52.964;6.086;2024-03-25T09:33:22;12.65;;;4.00;;
52414;SDS011;38340;52.964;6.086;2024-03-25T09:35:48;11.75;;;4.82;;
52414;SDS011;38340;52.964;6.086;2024-03-25T09:38:14;12.48;;;3.92;;
52414;SDS011;38340;52.964;6.086;2024-03-25T09:40:40;14.55;;;3.83;;
52414;SDS011;38340;52.964;6.086;2024-03-25T09:43:07;11.35;;;4.20;;
52414;SDS011;38340;52.964;6.086;2024-03-25T09:45:42;10.93;;;3.63;;
52414;SDS011;38340;52.964;6.086;2024-03-25T09:48:13;14.20;;;4.07;;
52414;SDS011;38340;52.964;6.086;2024-03-25T09:50:42;11.13;;;4.38;;
52414;SDS011;38340;52.964;6.086;2024-03-25T09:53:09;12.70;;;4.20;;
52414;SDS011;38340;52.964;6.086;2024-03-25T09:55:34;8.48;;;3.97;;
52414;SDS011;38340;52.964;6.086;2024-03-25T09:58:00;11.57;;;3.88;;
52414;SDS011;38340;52.964;6.086;2024-03-25T10:00:27;12.25;;;3.67;;
52414;SDS011;38340;52.964;6.086;2024-03-25T10:02:54;18.55;;;4.32;;
52414;SDS011;38340;52.964;6.086;2024-03-25T10:05:19;17.05;;;4.32;;
52414;SDS011;38340;52.964;6.086;2024-03-25T10:07:45;10.60;;;4.10;;
52414;SDS011;38340;52.964;6.086;2024-03-25T10:10:11;10.77;;;3.90;;
52414;SDS011;38340;52.964;6.086;2024-03-25T10:12:37;16.30;;;4.10;;
52414;SDS011;38340;52.964;6.086;2024-03-25T10:15:03;17.88;;;4.30;;
52414;SDS011;38340;52.964;6.086;2024-03-25T10:17:31;8.27;;;4.30;;
52414;SDS011;38340;52.964;6.086;2024-03-25T10:19:56;16.33;;;4.18;;
52414;SDS011;38340;52.964;6.086;2024-03-25T10:22:22;13.93;;;4.38;;
52414;SDS011;38340;52.964;6.086;2024-03-25T10:24:48;11.57;;;3.97;;
52414;SDS011;38340;52.964;6.086;2024-03-25T10:27:17;13.65;;;3.75;;
52414;SDS011;38340;52.964;6.086;2024-03-25T10:29:45;10.93;;;4.15;;
52414;SDS011;38340;52.964;6.086;2024-03-25T10:32:12;10.32;;;3.53;;
52414;SDS011;38340;52.964;6.086;2024-03-25T10:34:39;15.88;;;4.18;;
52414;SDS011;38340;52.964;6.086;2024-03-25T10:37:05;10.70;;;3.08;;
52414;SDS011;38340;52.964;6.086;2024-03-25T10:39:33;14.00;;;3.97;;
52414;SDS011;38340;52.964;6.086;2024-03-25T10:42:13;9.40;;;3.90;;
52414;SDS011;38340;52.964;6.086;2024-03-25T10:44:39;13.35;;;3.67;;
52414;SDS011;38340;52.964;6.086;2024-03-25T10:47:05;11.07;;;3.53;;
52414;SDS011;38340;52.964;6.086;2024-03-25T10:49:48;8.20;;;3.70;;
52414;SDS011;38340;52.964;6.086;2024-03-25T10:52:17;14.38;;;3.47;;
52414;SDS011;38340;52.964;6.086;2024-03-25T10:54:44;9.88;;;3.78;;
52414;SDS011;38340;52.964;6.086;2024-03-25T10:57:12;14.82;;;4.20;;
52414;SDS011;38340;52.964;6.086;2024-03-25T10:59:39;12.10;;;3.95;;
52414;SDS011;38340;52.964;6.086;2024-03-25T11:02:08;13.13;;;3.85;;
52414;SDS011;38340;52.964;6.086;2024-03-25T11:04:34;10.13;;;3.78;;
52414;SDS011;38340;52.964;6.086;2024-03-25T11:07:10;13.25;;;4.30;;
52414;SDS011;38340;52.964;6.086;2024-03-25T11:09:40;9.65;;;3.30;;
52414;SDS011;38340;52.964;6.086;2024-03-25T11:12:07;12.38;;;3.40;;
52414;SDS011;38340;52.964;6.086;2024-03-25T11:14:36;7.72;;;3.30;;
52414;SDS011;38340;52.964;6.086;2024-03-25T11:17:02;11.65;;;3.90;;
52414;SDS011;38340;52.964;6.086;2024-03-25T11:19:28;14.10;;;3.72;;
52414;SDS011;38340;52.964;6.086;2024-03-25T11:22:06;12.20;;;3.65;;
52414;SDS011;38340;52.964;6.086;2024-03-25T11:24:34;9.80;;;3.47;;
52414;SDS011;38340;52.964;6.086;2024-03-25T11:27:06;12.07;;;3.70;;
52414;SDS011;38340;52.964;6.086;2024-03-25T11:29:33;7.63;;;3.25;;
52414;SDS011;38340;52.964;6.086;2024-03-25T11:31:59;12.32;;;4.30;;
52414;SDS011;38340;52.964;6.086;2024-03-25T11:34:29;9.10;;;3.60;;
52414;SDS011;38340;52.964;6.086;2024-03-25T11:36:55;10.13;;;3.45;;
52414;SDS011;38340;52.964;6.086;2024-03-25T11:39:22;11.55;;;4.00;;
52414;SDS011;38340;52.964;6.086;2024-03-25T11:41:49;14.60;;;3.40;;
52414;SDS011;38340;52.964;6.086;2024-03-25T11:44:14;15.18;;;3.95;;
52414;SDS011;38340;52.964;6.086;2024-03-25T11:46:42;10.32;;;3.63;;
52414;SDS011;38340;52.964;6.086;2024-03-25T11:49:12;8.60;;;3.97;;
52414;SDS011;38340;52.964;6.086;2024-03-25T11:51:39;8.70;;;3.47;;
52414;SDS011;38340;52.964;6.086;2024-03-25T11:54:12;9.60;;;3.58;;
52414;SDS011;38340;52.964;6.086;2024-03-25T11:56:38;10.27;;;3.35;;
52414;SDS011;38340;52.964;6.086;2024-03-25T11:59:04;8.45;;;3.38;;
52414;SDS011;38340;52.964;6.086;2024-03-25T12:01:31;6.28;;;2.85;;
52414;SDS011;38340;52.964;6.086;2024-03-25T12:03:57;8.10;;;2.97;;
52414;SDS011;38340;52.964;6.086;2024-03-25T12:06:33;7.30;;;3.03;;
52414;SDS011;38340;52.964;6.086;2024-03-25T12:08:59;8.27;;;3.08;;
52414;SDS011;38340;52.964;6.086;2024-03-25T12:11:43;7.13;;;3.63;;
52414;SDS011;38340;52.964;6.086;2024-03-25T12:14:08;8.35;;;3.33;;
52414;SDS011;38340;52.964;6.086;2024-03-25T12:16:34;10.48;;;4.00;;
52414;SDS011;38340;52.964;6.086;2024-03-25T12:19:00;7.07;;;3.22;;
52414;SDS011;38340;52.964;6.086;2024-03-25T12:21:25;7.13;;;3.30;;
52414;SDS011;38340;52.964;6.086;2024-03-25T12:23:51;10.05;;;3.28;;
52414;SDS011;38340;52.964;6.086;2024-03-25T12:26:19;6.07;;;3.25;;
52414;SDS011;38340;52.964;6.086;2024-03-25T12:28:45;11.82;;;4.22;;
52414;SDS011;38340;52.964;6.086;2024-03-25T12:31:11;11.90;;;3.63;;
52414;SDS011;38340;52.964;6.086;2024-03-25T12:33:41;9.13;;;3.42;;
52414;SDS011;38340;52.964;6.086;2024-03-25T12:36:08;7.65;;;3.03;;
52414;SDS011;38340;52.964;6.086;2024-03-25T12:38:36;6.78;;;3.50;;
52414;SDS011;38340;52.964;6.086;2024-03-25T12:41:08;13.38;;;3.25;;
52414;SDS011;38340;52.964;6.086;2024-03-25T12:43:43;7.00;;;3.42;;
52414;SDS011;38340;52.964;6.086;2024-03-25T12:46:10;6.13;;;3.45;;
52414;SDS011;38340;52.964;6.086;2024-03-25T12:48:37;9.35;;;3.90;;
52414;SDS011;38340;52.964;6.086;2024-03-25T12:51:03;5.90;;;2.92;;
52414;SDS011;38340;52.964;6.086;2024-03-25T12:53:30;6.78;;;3.50;;
52414;SDS011;38340;52.964;6.086;2024-03-25T12:55:55;5.47;;;2.90;;
52414;SDS011;38340;52.964;6.086;2024-03-25T12:58:21;6.90;;;2.95;;
52414;SDS011;38340;52.964;6.086;2024-03-25T13:00:47;11.52;;;3.92;;
52414;SDS011;38340;52.964;6.086;2024-03-25T13:03:12;6.45;;;3.25;;
52414;SDS011;38340;52.964;6.086;2024-03-25T13:05:39;8.23;;;3.90;;
52414;SDS011;38340;52.964;6.086;2024-03-25T13:08:05;6.90;;;3.22;;
52414;SDS011;38340;52.964;6.086;2024-03-25T13:10:31;11.02;;;3.65;;
52414;SDS011;38340;52.964;6.086;2024-03-25T13:12:57;8.00;;;3.40;;
52414;SDS011;38340;52.964;6.086;2024-03-25T13:15:25;6.45;;;3.38;;
52414;SDS011;38340;52.964;6.086;2024-03-25T13:17:51;7.35;;;3.95;;
52414;SDS011;38340;52.964;6.086;2024-03-25T13:20:17;6.13;;;3.03;;
52414;SDS011;38340;52.964;6.086;2024-03-25T13:22:43;7.47;;;3.67;;
52414;SDS011;38340;52.964;6.086;2024-03-25T13:25:11;8.65;;;3.88;;
52414;SDS011;38340;52.964;6.086;2024-03-25T13:27:37;5.53;;;3.60;;
52414;SDS011;38340;52.964;6.086;2024-03-25T13:30:03;6.82;;;3.78;;
52414;SDS011;38340;52.964;6.086;2024-03-25T13:32:30;8.15;;;4.68;;
52414;SDS011;38340;52.964;6.086;2024-03-25T13:34:56;9.05;;;3.90;;
52414;SDS011;38340;52.964;6.086;2024-03-25T13:37:21;7.05;;;3.80;;
52414;SDS011;38340;52.964;6.086;2024-03-25T13:39:47;5.32;;;3.50;;
52414;SDS011;38340;52.964;6.086;2024-03-25T13:42:15;7.97;;;3.80;;
52414;SDS011;38340;52.964;6.086;2024-03-25T13:44:40;7.45;;;4.20;;
52414;SDS011;38340;52.964;6.086;2024-03-25T13:47:06;8.40;;;3.47;;
52414;SDS011;38340;52.964;6.086;2024-03-25T13:49:33;7.57;;;3.97;;
52414;SDS011;38340;52.964;6.086;2024-03-25T13:51:59;7.43;;;3.35;;
52414;SDS011;38340;52.964;6.086;2024-03-25T13:54:28;6.53;;;3.28;;
52414;SDS011;38340;52.964;6.086;2024-03-25T13:56:55;4.57;;;3.35;;
52414;SDS011;38340;52.964;6.086;2024-03-25T13:59:20;7.85;;;3.35;;
52414;SDS011;38340;52.964;6.086;2024-03-25T14:01:46;8.52;;;3.42;;
52414;SDS011;38340;52.964;6.086;2024-03-25T14:04:12;6.32;;;3.13;;
52414;SDS011;38340;52.964;6.086;2024-03-25T14:06:38;8.80;;;3.42;;
52414;SDS011;38340;52.964;6.086;2024-03-25T14:09:04;4.72;;;3.30;;
52414;SDS011;38340;52.964;6.086;2024-03-25T14:11:31;9.82;;;3.67;;
52414;SDS011;38340;52.964;6.086;2024-03-25T14:13:56;4.97;;;2.95;;
52414;SDS011;38340;52.964;6.086;2024-03-25T14:16:22;7.57;;;3.25;;
52414;SDS011;38340;52.964;6.086;2024-03-25T14:18:48;7.78;;;3.22;;
52414;SDS011;38340;52.964;6.086;2024-03-25T14:21:13;8.55;;;3.10;;
52414;SDS011;38340;52.964;6.086;2024-03-25T14:23:39;6.55;;;3.13;;
52414;SDS011;38340;52.964;6.086;2024-03-25T14:26:14;7.22;;;3.40;;
52414;SDS011;38340;52.964;6.086;2024-03-25T14:28:42;6.22;;;3.67;;
52414;SDS011;38340;52.964;6.086;2024-03-25T14:31:08;6.80;;;3.10;;
52414;SDS011;38340;52.964;6.086;2024-03-25T14:33:34;7.43;;;3.63;;